createdAt,value
2023-03-21T00:02:55.962Z,20.22
2023-03-21T00:06:54.920Z,20.17
2023-03-21T00:10:55.092Z,20.19
2023-03-21T00:14:55.289Z,20.20
2023-03-21T00:18:55.261Z,20.21
2023-03-21T00:22:55.249Z,20.20
2023-03-21T00:27:00.189Z,20.17
2023-03-21T00:30:56.150Z,20.29
2023-03-21T00:35:11.877Z,20.30
2023-03-21T00:38:56.061Z,20.34
2023-03-21T00:42:55.020Z,20.34
2023-03-21T00:47:06.615Z,20.28
2023-03-21T00:50:56.233Z,20.24
2023-03-21T00:54:55.135Z,20.22
2023-03-21T00:58:55.233Z,20.21
2023-03-21T01:03:02.780Z,20.14
2023-03-21T01:06:56.252Z,20.14
2023-03-21T01:10:55.224Z,20.15
2023-03-21T01:14:55.185Z,20.05
2023-03-21T01:18:55.126Z,20.04
2023-03-21T01:22:55.106Z,20.07
2023-03-21T01:26:55.129Z,20.04
2023-03-21T01:30:55.042Z,20.03
2023-03-21T01:34:54.990Z,20.06
2023-03-21T01:38:54.959Z,20.02
2023-03-21T01:42:54.981Z,19.95
2023-03-21T01:47:12.250Z,19.93
2023-03-21T01:50:55.934Z,19.91
2023-03-21T01:54:54.874Z,19.88
2023-03-21T01:58:54.825Z,19.81
2023-03-21T02:02:58.270Z,19.89
2023-03-21T02:06:55.763Z,19.90
2023-03-21T02:10:54.724Z,19.93
2023-03-21T02:14:54.711Z,19.87
2023-03-21T02:18:54.687Z,19.82
2023-03-21T02:22:54.607Z,19.82
2023-03-21T02:27:03.655Z,19.85
2023-03-21T02:30:55.896Z,19.85
2023-03-21T02:34:54.497Z,19.81
2023-03-21T02:38:54.507Z,19.86
2023-03-21T02:42:59.957Z,19.89
2023-03-21T02:47:03.121Z,19.87
2023-03-21T02:50:55.394Z,19.81
2023-03-21T02:54:54.350Z,19.81
2023-03-21T02:58:54.284Z,19.75
2023-03-21T03:03:06.276Z,19.78
2023-03-21T03:06:55.260Z,19.71
2023-03-21T03:10:54.214Z,19.67
2023-03-21T03:15:03.051Z,19.67
2023-03-21T03:18:55.147Z,19.73
2023-03-21T03:22:54.135Z,19.71
2023-03-21T03:26:54.096Z,19.70
2023-03-21T03:31:08.099Z,19.70
2023-03-21T03:34:54.988Z,19.64
2023-03-21T03:38:53.956Z,19.62
2023-03-21T03:42:53.946Z,19.63
2023-03-21T03:46:53.980Z,19.63
2023-03-21T03:50:53.870Z,19.59
2023-03-21T03:54:53.873Z,19.61
2023-03-21T03:58:53.800Z,19.62
2023-03-21T04:02:53.803Z,19.57
2023-03-21T04:06:53.823Z,19.52
2023-03-21T04:10:53.953Z,19.47
2023-03-21T04:14:57.066Z,19.47
2023-03-21T04:18:54.884Z,19.54
2023-03-21T04:22:53.843Z,19.44
2023-03-21T04:26:53.817Z,19.45
2023-03-21T04:31:02.450Z,19.41
2023-03-21T04:34:54.782Z,19.44
2023-03-21T04:38:53.786Z,19.41
2023-03-21T04:42:53.678Z,19.41
2023-03-21T04:46:53.688Z,19.44
2023-03-21T04:50:53.796Z,19.44
2023-03-21T04:54:54.902Z,19.46
2023-03-21T04:58:54.016Z,19.45
2023-03-21T05:02:54.080Z,19.36
2023-03-21T05:06:54.205Z,19.39
2023-03-21T05:10:54.345Z,19.42
2023-03-21T05:14:54.550Z,19.47
2023-03-21T05:18:54.559Z,19.43
2023-03-21T05:22:54.657Z,19.42
2023-03-21T05:26:54.780Z,19.35
2023-03-21T05:30:54.973Z,19.29
2023-03-21T05:34:55.057Z,19.30
2023-03-21T05:38:55.207Z,19.32
2023-03-21T05:42:55.328Z,19.32
2023-03-21T05:46:55.500Z,19.29
2023-03-21T05:50:55.659Z,19.43
2023-03-21T05:54:55.763Z,19.58
2023-03-21T05:58:55.781Z,19.67
2023-03-21T06:02:55.902Z,19.71
2023-03-21T06:06:55.950Z,19.73
2023-03-21T06:10:56.030Z,19.76
2023-03-21T06:14:56.046Z,19.80
2023-03-21T06:18:56.078Z,19.83
2023-03-21T06:22:56.101Z,19.86
2023-03-21T06:26:56.150Z,19.90
2023-03-21T06:30:56.168Z,19.95
2023-03-21T06:34:56.125Z,20.03
2023-03-21T06:38:56.259Z,20.12
2023-03-21T06:42:56.252Z,20.25
2023-03-21T06:46:56.165Z,20.30
2023-03-21T06:50:56.282Z,20.45
2023-03-21T06:54:56.771Z,20.52
2023-03-21T06:58:56.766Z,20.48
2023-03-21T07:02:56.403Z,20.46
2023-03-21T07:06:56.784Z,20.44
2023-03-21T07:10:56.316Z,20.43
2023-03-21T07:14:56.258Z,20.39
2023-03-21T07:18:56.220Z,20.37
2023-03-21T07:22:56.236Z,20.36
2023-03-21T07:26:56.185Z,20.35
2023-03-21T07:30:56.106Z,20.37
2023-03-21T07:34:56.090Z,20.38
2023-03-21T07:38:56.046Z,20.40
2023-03-21T07:42:56.030Z,20.41
2023-03-21T07:46:56.274Z,20.38
2023-03-21T07:50:56.343Z,20.46
2023-03-21T07:54:55.902Z,20.77
2023-03-21T07:58:55.856Z,21.05
2023-03-21T08:02:58.736Z,21.26
2023-03-21T08:06:55.784Z,21.48
2023-03-21T08:10:55.729Z,21.66
2023-03-21T08:14:55.831Z,21.80
2023-03-21T08:18:55.666Z,21.94
2023-03-21T08:22:55.642Z,22.06
2023-03-21T08:26:55.583Z,22.17
2023-03-21T08:30:55.604Z,22.27
2023-03-21T08:34:55.545Z,22.27
2023-03-21T08:38:55.505Z,22.35
2023-03-21T08:42:55.832Z,22.45
2023-03-21T08:46:55.464Z,22.42
2023-03-21T08:50:55.802Z,22.29
2023-03-21T08:54:55.366Z,22.31
2023-03-21T08:58:55.340Z,22.30
2023-03-21T09:02:55.313Z,22.28
2023-03-21T09:06:55.223Z,22.27
2023-03-21T09:10:55.818Z,22.25
2023-03-21T09:14:55.458Z,22.27
2023-03-21T09:18:55.561Z,22.31
2023-03-21T09:22:55.612Z,22.32
2023-03-21T09:26:55.675Z,22.29
2023-03-21T09:30:55.866Z,22.28
2023-03-21T09:34:55.911Z,22.26
2023-03-21T09:38:55.994Z,22.24
2023-03-21T09:42:56.326Z,22.18
2023-03-21T09:46:56.376Z,22.12
2023-03-21T09:50:56.849Z,22.13
2023-03-21T09:54:56.492Z,22.10
2023-03-21T09:58:56.680Z,21.96
2023-03-21T10:02:57.589Z,21.78
2023-03-21T10:06:56.806Z,21.70
2023-03-21T10:10:56.791Z,21.63
2023-03-21T10:14:57.927Z,21.57
2023-03-21T10:18:56.689Z,21.52
2023-03-21T10:22:56.715Z,21.52
2023-03-21T10:26:56.643Z,21.56
2023-03-21T10:30:56.591Z,21.57
2023-03-21T10:38:56.843Z,21.60
2023-03-21T10:42:56.844Z,21.64
2023-03-21T10:46:57.117Z,21.79
2023-03-21T10:50:56.964Z,21.96
2023-03-21T10:54:56.584Z,22.20
2023-03-21T10:58:56.546Z,22.37
2023-03-21T11:02:56.501Z,22.49
2023-03-21T11:06:56.440Z,22.58
2023-03-21T11:10:56.424Z,22.70
2023-03-21T11:14:56.470Z,22.81
2023-03-21T11:18:56.359Z,22.82
2023-03-21T11:22:56.321Z,22.82
2023-03-21T11:26:56.284Z,22.88
2023-03-21T11:30:56.275Z,22.88
2023-03-21T11:34:56.367Z,22.90
2023-03-21T11:38:56.203Z,22.92
2023-03-21T11:42:56.394Z,22.73
2023-03-21T11:46:56.131Z,22.80
2023-03-21T11:50:56.062Z,22.89
2023-03-21T11:54:56.122Z,22.98
2023-03-21T11:58:56.377Z,23.04
2023-03-21T12:02:56.370Z,23.12
2023-03-21T12:06:56.295Z,23.17
2023-03-21T12:10:56.224Z,23.22
2023-03-21T12:14:56.178Z,23.24
2023-03-21T12:18:56.170Z,23.29
2023-03-21T12:22:56.128Z,23.29
2023-03-21T12:26:57.534Z,23.30
2023-03-21T12:30:56.192Z,23.30
2023-03-21T12:34:56.403Z,23.27
2023-03-21T12:38:56.381Z,23.13
2023-03-21T12:42:56.405Z,23.03
2023-03-21T12:46:56.036Z,22.99
2023-03-21T12:50:55.826Z,22.91
2023-03-21T12:54:55.814Z,22.77
2023-03-21T12:58:55.774Z,22.50
2023-03-21T13:02:55.871Z,22.38
2023-03-21T13:06:55.692Z,22.30
2023-03-21T13:10:55.680Z,22.27
2023-03-21T13:14:55.634Z,22.23
2023-03-21T13:18:55.725Z,22.23
2023-03-21T13:22:55.923Z,22.20
2023-03-21T13:26:55.534Z,22.20
2023-03-21T13:30:55.535Z,22.18
2023-03-21T13:34:55.498Z,22.21
2023-03-21T13:38:55.550Z,22.20
2023-03-21T13:42:55.604Z,22.21
2023-03-21T13:46:55.808Z,22.20
2023-03-21T13:50:55.822Z,22.15
2023-03-21T13:54:55.808Z,22.12
2023-03-21T13:58:55.883Z,22.11
2023-03-21T14:02:55.989Z,22.11
2023-03-21T14:06:56.245Z,22.09
2023-03-21T14:10:56.145Z,22.08
2023-03-21T14:14:56.426Z,22.07
2023-03-21T14:18:56.451Z,22.07
2023-03-21T14:22:56.525Z,22.07
2023-03-21T14:26:56.514Z,22.07
2023-03-21T14:30:56.700Z,22.06
2023-03-21T14:34:56.739Z,22.07
2023-03-21T14:38:56.923Z,22.07
2023-03-21T14:42:57.454Z,22.05
2023-03-21T14:46:57.087Z,22.03
2023-03-21T14:50:57.180Z,22.01
2023-03-21T14:54:57.426Z,22.01
2023-03-21T14:58:57.458Z,22.01
2023-03-21T15:02:57.748Z,22.00
2023-03-21T15:06:57.739Z,22.03
2023-03-21T15:11:06.811Z,22.01
2023-03-21T15:14:58.946Z,22.05
2023-03-21T15:18:57.749Z,22.05
2023-03-21T15:22:57.776Z,22.07
2023-03-21T15:26:58.005Z,22.06
2023-03-21T15:30:58.058Z,22.08
2023-03-21T15:34:58.128Z,22.04
2023-03-21T15:38:58.249Z,22.03
2023-03-21T15:42:58.518Z,22.06
2023-03-21T15:46:58.665Z,22.05
2023-03-21T15:50:58.687Z,22.03
2023-03-21T15:54:58.796Z,22.03
2023-03-21T15:58:59.081Z,22.02
2023-03-21T16:02:59.160Z,22.02
2023-03-21T16:06:59.296Z,22.00
2023-03-21T16:10:59.438Z,21.99
2023-03-21T16:14:59.598Z,21.99
2023-03-21T16:18:59.713Z,22.02
2023-03-21T16:22:59.868Z,22.02
2023-03-21T16:27:00.016Z,21.98
2023-03-21T16:31:00.213Z,21.96
2023-03-21T16:35:00.298Z,21.95
2023-03-21T16:39:00.519Z,21.92
2023-03-21T16:43:00.613Z,21.90
2023-03-21T16:47:02.314Z,21.89
2023-03-21T16:51:00.965Z,21.87
2023-03-21T16:55:01.161Z,21.89
2023-03-21T16:59:01.345Z,21.85
2023-03-21T17:03:01.682Z,21.81
2023-03-21T17:07:01.722Z,21.80
2023-03-21T17:11:03.322Z,21.82
2023-03-21T17:15:02.171Z,21.81
2023-03-21T17:19:02.290Z,21.79
2023-03-21T17:23:02.497Z,21.77
2023-03-21T17:27:02.724Z,21.76
2023-03-21T17:31:02.977Z,21.78
2023-03-21T17:35:03.133Z,21.76
2023-03-21T17:39:03.353Z,21.73
2023-03-21T17:43:03.595Z,21.73
2023-03-21T17:47:03.806Z,21.71
2023-03-21T17:51:04.021Z,21.69
2023-03-21T17:55:03.988Z,21.68
2023-03-21T17:59:03.977Z,21.68
2023-03-21T18:03:03.965Z,21.65
2023-03-21T18:07:03.890Z,21.62
2023-03-21T18:11:03.845Z,21.58
2023-03-21T18:15:04.102Z,21.56
2023-03-21T18:19:03.760Z,21.50
2023-03-21T18:23:03.739Z,21.49
2023-03-21T18:27:03.678Z,21.45
2023-03-21T18:31:18.253Z,21.43
2023-03-21T18:35:04.736Z,21.39
2023-03-21T18:39:03.814Z,21.39
2023-03-21T18:47:04.834Z,21.35
2023-03-21T18:51:03.725Z,21.35
2023-03-21T18:55:03.658Z,21.37
2023-03-21T18:59:03.625Z,21.35
2023-03-21T19:03:18.722Z,21.32
2023-03-21T19:07:04.570Z,21.30
2023-03-21T19:11:06.405Z,21.29
2023-03-21T19:15:03.506Z,21.28
2023-03-21T19:19:03.517Z,21.25
2023-03-21T19:23:03.485Z,21.25
2023-03-21T19:27:03.384Z,21.22
2023-03-21T19:31:03.367Z,21.20
2023-03-21T19:35:03.324Z,21.18
2023-03-21T19:39:03.307Z,21.16
2023-03-21T19:43:21.573Z,21.15
2023-03-21T19:47:04.213Z,21.14
2023-03-21T19:51:30.834Z,21.12
2023-03-21T19:55:04.175Z,21.10
2023-03-21T19:59:03.263Z,21.06
2023-03-21T20:03:03.152Z,21.06
2023-03-21T20:07:03.010Z,21.03
2023-03-21T20:11:02.975Z,21.02
2023-03-21T20:15:15.845Z,21.01
2023-03-21T20:19:03.927Z,21.00
2023-03-21T20:23:08.268Z,20.99
2023-03-21T20:27:04.033Z,20.97
2023-03-21T20:31:02.832Z,20.95
2023-03-21T20:35:16.952Z,20.93
2023-03-21T20:39:03.733Z,20.92
2023-03-21T20:43:25.066Z,20.91
2023-03-21T20:47:03.649Z,20.89
2023-03-21T20:51:25.024Z,20.89
2023-03-21T20:55:03.561Z,20.89
2023-03-21T20:59:16.163Z,20.88
2023-03-21T21:03:03.504Z,20.86
2023-03-21T21:07:02.504Z,20.84
2023-03-21T21:11:53.497Z,20.84
2023-03-21T21:15:03.389Z,20.82
2023-03-21T21:19:02.366Z,20.82
2023-03-21T21:23:02.310Z,20.82
2023-03-21T21:27:02.368Z,20.80
2023-03-21T21:31:02.596Z,20.78
2023-03-21T21:35:02.698Z,20.77
2023-03-21T21:39:02.897Z,20.76
2023-03-21T21:43:03.059Z,20.75
2023-03-21T21:47:03.226Z,20.74
2023-03-21T21:51:03.450Z,20.71
2023-03-21T21:55:03.576Z,20.71
2023-03-21T21:59:03.831Z,20.71
2023-03-21T22:03:04.059Z,20.68
2023-03-21T22:07:04.207Z,20.67
2023-03-21T22:11:04.383Z,20.65
2023-03-21T22:15:04.572Z,20.64
2023-03-21T22:19:04.802Z,20.62
2023-03-21T22:23:05.000Z,20.60
2023-03-21T22:27:04.971Z,20.57
2023-03-21T22:31:04.924Z,20.54
2023-03-21T22:35:04.930Z,20.53
2023-03-21T22:39:04.867Z,20.49
2023-03-21T22:43:04.842Z,20.48
2023-03-21T22:47:04.824Z,20.46
2023-03-21T22:51:04.754Z,20.45
2023-03-21T22:55:04.709Z,20.42
2023-03-21T22:59:04.695Z,20.39
2023-03-21T23:03:04.801Z,20.38
2023-03-21T23:07:04.748Z,20.36
2023-03-21T23:11:04.714Z,20.34
2023-03-21T23:15:04.677Z,20.32
2023-03-21T23:19:04.649Z,20.31
2023-03-21T23:23:04.572Z,20.28
2023-03-21T23:27:04.574Z,20.28
2023-03-21T23:31:04.530Z,20.27
2023-03-21T23:35:04.510Z,20.26
2023-03-21T23:39:04.482Z,20.25
2023-03-21T23:43:04.402Z,20.24
2023-03-21T23:47:04.417Z,20.22
2023-03-21T23:51:04.344Z,20.22
2023-03-21T23:55:04.313Z,20.20
2023-03-21T23:59:04.243Z,20.18
